Time;durP1;ratioP1;P1;durP2;ratioP2;P2;SDS_P1;SDS_P2;PMS_P1;PMS_P2;Temp;Humidity;BMP_temperature;BMP_pressure;BME280_temperature;BME280_humidity;BME280_pressure;Samples;Min_cycle;Max_cycle;Signal;HPM_P1;HPM_P2
2022/10/05 00:00:16;;;;;;;6.68;3.85;;;;;;;5.88;100.00;98935.75;4187979;28;20024;-71
2022/10/05 00:02:19;;;;;;;8.20;4.05;;;;;;;5.88;100.00;98942.06;4188409;28;20025;-71
2022/10/05 00:04:22;;;;;;;4.95;3.78;;;;;;;5.93;100.00;98943.81;4187226;28;20089;-71
2022/10/05 00:06:26;;;;;;;5.32;3.75;;;;;;;5.95;100.00;98941.53;4187877;28;20040;-71
2022/10/05 00:08:31;;;;;;;7.35;4.25;;;;;;;5.99;100.00;98947.16;4187465;28;20467;-71
2022/10/05 00:10:32;;;;;;;7.90;4.30;;;;;;;5.98;100.00;98940.88;4187633;28;20074;-71
2022/10/05 00:12:32;;;;;;;6.13;3.47;;;;;;;5.93;99.79;98932.03;4188566;28;20056;-71
2022/10/05 00:14:35;;;;;;;7.28;3.92;;;;;;;5.90;100.00;98938.97;4187124;28;20078;-71
2022/10/05 00:16:35;;;;;;;5.85;3.60;;;;;;;5.84;100.00;98932.06;4187869;28;20048;-71
2022/10/05 00:18:35;;;;;;;4.85;3.50;;;;;;;5.77;100.00;98929.84;4187079;28;20588;-71
2022/10/05 00:20:36;;;;;;;5.82;3.63;;;;;;;5.78;100.00;98925.97;4188271;28;20040;-71
2022/10/05 00:22:36;;;;;;;6.47;3.72;;;;;;;5.83;100.00;98928.53;4187519;28;20156;-71
2022/10/05 00:24:36;;;;;;;4.80;3.35;;;;;;;5.88;100.00;98925.59;4187778;28;20175;-71
2022/10/05 00:26:37;;;;;;;5.55;3.70;;;;;;;5.89;99.52;98916.19;4188154;28;20054;-71
2022/10/05 00:28:39;;;;;;;5.50;3.60;;;;;;;5.83;99.66;98916.72;4186884;28;20044;-71
2022/10/05 00:30:40;;;;;;;6.30;3.90;;;;;;;5.79;100.00;98918.53;4187598;28;20149;-71
2022/10/05 00:32:41;;;;;;;6.43;3.80;;;;;;;5.72;100.00;98921.03;4187686;28;20036;-71
2022/10/05 00:34:42;;;;;;;5.22;3.78;;;;;;;5.70;100.00;98923.28;4187396;28;20074;-71
2022/10/05 00:36:44;;;;;;;7.83;4.23;;;;;;;5.61;100.00;98926.91;4186088;28;20182;-71
2022/10/05 00:38:44;;;;;;;5.72;3.80;;;;;;;5.50;100.00;98930.38;4187011;28;20385;-71
2022/10/05 00:40:54;;;;;;;5.15;3.72;;;;;;;5.43;100.00;98924.63;4187866;28;20054;-71
2022/10/05 00:43:14;;;;;;;5.18;3.50;;;;;;;5.38;100.00;98935.78;4187270;28;20373;-71
2022/10/05 00:45:22;;;;;;;6.18;3.80;;;;;;;5.34;100.00;98936.47;4176278;28;20044;-71
2022/10/05 00:47:30;;;;;;;5.97;3.83;;;;;;;5.32;100.00;98943.41;4186548;28;20492;-71
2022/10/05 00:49:55;;;;;;;6.32;4.05;;;;;;;5.29;100.00;98949.56;4187054;28;20056;-71
2022/10/05 00:52:30;;;;;;;5.85;3.65;;;;;;;5.30;100.00;98953.94;4187572;28;20061;-71
2022/10/05 00:54:42;;;;;;;6.72;3.78;;;;;;;5.27;100.00;98944.41;4186561;28;20401;-71
2022/10/05 00:57:17;;;;;;;6.15;4.05;;;;;;;5.29;100.00;98930.34;4187591;28;20480;-71
2022/10/05 00:59:38;;;;;;;6.97;4.35;;;;;;;5.32;100.00;98932.44;4186394;28;20072;-71
2022/10/05 01:01:57;;;;;;;6.93;3.83;;;;;;;5.35;100.00;98920.78;4186389;28;20540;-71
2022/10/05 01:04:04;;;;;;;8.07;4.30;;;;;;;5.35;100.00;98913.38;4187756;28;20055;-71
2022/10/05 01:06:10;;;;;;;7.53;4.38;;;;;;;5.37;100.00;98921.25;4186794;28;20549;-71
2022/10/05 01:08:19;;;;;;;7.53;4.88;;;;;;;5.33;100.00;98928.56;4187676;28;20329;-71
2022/10/05 01:10:55;;;;;;;6.88;5.07;;;;;;;5.36;100.00;98939.66;4187294;28;20028;-71
2022/10/05 01:13:07;;;;;;;7.95;4.60;;;;;;;5.40;100.00;98937.06;4179063;28;20049;-71
2022/10/05 01:15:20;;;;;;;6.65;4.45;;;;;;;5.55;100.00;98935.69;4186701;28;20460;-71
2022/10/05 01:17:30;;;;;;;6.57;4.20;;;;;;;5.57;100.00;98930.66;4186899;28;20219;-71
2022/10/05 01:20:00;;;;;;;5.78;4.07;;;;;;;5.60;100.00;98930.78;4185671;28;20057;-71
2022/10/05 01:22:34;;;;;;;5.88;3.67;;;;;;;5.56;100.00;98931.81;4171806;28;20041;-71
2022/10/05 01:25:27;;;;;;;8.55;4.25;;;;;;;5.55;100.00;98939.25;4186121;28;20486;-71
2022/10/05 01:27:30;;;;;;;5.40;3.95;;;;;;;5.54;100.00;98936.81;4152331;28;20476;-71
2022/10/05 01:30:08;;;;;;;8.00;3.63;;;;;;;5.56;100.00;98938.09;4185855;28;20045;-71
2022/10/05 01:32:28;;;;;;;6.15;3.80;;;;;;;5.57;100.00;98941.66;4185394;28;20071;-71
2022/10/05 01:34:49;;;;;;;6.57;3.95;;;;;;;5.56;100.00;98945.53;4186612;28;20392;-71
2022/10/05 01:37:18;;;;;;;5.75;3.47;;;;;;;5.58;100.00;98937.75;4186761;28;20076;-71
2022/10/05 01:39:37;;;;;;;7.05;4.35;;;;;;;5.51;100.00;98932.78;4172209;28;20044;-71
2022/10/05 01:41:43;;;;;;;6.07;3.50;;;;;;;5.48;100.00;98927.19;4186596;28;20369;-71
2022/10/05 01:44:01;;;;;;;7.32;3.78;;;;;;;5.44;100.00;98931.72;4185772;28;20354;-71
2022/10/05 01:46:37;;;;;;;5.10;3.35;;;;;;;5.36;100.00;98919.66;4185662;28;20039;-71
2022/10/05 01:48:37;;;;;;;7.65;3.70;;;;;;;5.30;100.00;98921.00;4185909;28;20431;-71
2022/10/05 01:50:50;;;;;;;6.15;3.72;;;;;;;5.23;100.00;98924.28;4186126;28;20062;-71
2022/10/05 01:53:20;;;;;;;6.78;3.92;;;;;;;5.17;100.00;98924.78;4186287;28;20041;-71
2022/10/05 01:55:39;;;;;;;5.88;3.30;;;;;;;5.10;100.00;98930.78;4185953;28;20045;-71
2022/10/05 01:57:54;;;;;;;5.65;3.75;;;;;;;5.08;100.00;98922.88;4186741;28;20064;-71
2022/10/05 02:00:03;;;;;;;6.53;4.15;;;;;;;5.01;100.00;98922.59;4185302;28;20037;-70
2022/10/05 02:02:08;;;;;;;7.55;4.97;;;;;;;5.03;100.00;98925.81;4186424;28;20048;-71
2022/10/05 02:04:14;;;;;;;6.38;4.07;;;;;;;4.99;100.00;98930.34;4185282;28;20039;-71
2022/10/05 02:06:40;;;;;;;5.63;4.05;;;;;;;4.98;100.00;98928.75;4186185;28;20877;-71
2022/10/05 02:09:06;;;;;;;7.57;3.75;;;;;;;4.94;100.00;98936.00;4185568;28;20050;-71
2022/10/05 02:11:09;;;;;;;7.65;3.72;;;;;;;4.94;100.00;98936.00;4186452;28;20531;-71
2022/10/05 02:13:35;;;;;;;6.15;3.72;;;;;;;5.02;100.00;98940.66;4186150;28;20055;-71
2022/10/05 02:15:52;;;;;;;4.40;3.13;;;;;;;5.05;100.00;98937.28;4185262;28;20111;-71
2022/10/05 02:18:02;;;;;;;4.65;3.30;;;;;;;4.97;100.00;98935.38;4186445;28;20052;-71
2022/10/05 02:20:09;;;;;;;7.10;3.63;;;;;;;4.96;100.00;98931.00;4185399;28;20570;-71
2022/10/05 02:22:15;;;;;;;6.07;3.55;;;;;;;4.87;100.00;98929.44;4186405;28;20419;-71
2022/10/05 02:24:25;;;;;;;7.38;3.63;;;;;;;4.87;100.00;98930.25;4186453;28;20074;-71
2022/10/05 02:26:27;;;;;;;8.32;3.90;;;;;;;4.88;100.00;98942.84;4185910;28;20063;-71
2022/10/05 02:28:40;;;;;;;6.70;3.70;;;;;;;4.89;100.00;98938.97;4185755;28;20384;-71
2022/10/05 02:30:49;;;;;;;7.45;3.78;;;;;;;4.89;100.00;98933.47;4185698;28;20380;-71
2022/10/05 02:33:22;;;;;;;6.35;3.65;;;;;;;4.90;100.00;98926.06;4186078;28;20492;-71
2022/10/05 02:35:22;;;;;;;5.47;3.80;;;;;;;4.95;100.00;98910.19;4164008;28;20322;-71
2022/10/05 02:37:56;;;;;;;5.70;3.97;;;;;;;4.92;100.00;98910.06;4186039;28;20044;-71
2022/10/05 02:40:03;;;;;;;4.78;3.17;;;;;;;4.97;100.00;98910.69;4185663;28;20457;-71
2022/10/05 02:42:10;;;;;;;5.82;3.58;;;;;;;5.05;100.00;98903.56;4185521;28;20600;-71
2022/10/05 02:44:40;;;;;;;6.05;3.65;;;;;;;5.15;100.00;98897.69;4185560;28;20034;-71
2022/10/05 02:46:58;;;;;;;7.60;3.67;;;;;;;5.20;100.00;98885.69;4143903;28;20090;-71
2022/10/05 02:49:09;;;;;;;5.65;3.60;;;;;;;5.24;100.00;98875.69;4185765;28;20135;-71
2022/10/05 02:51:21;;;;;;;6.10;3.30;;;;;;;5.19;100.00;98873.94;4185769;28;20507;-71
2022/10/05 02:53:27;;;;;;;4.63;3.25;;;;;;;5.17;100.00;98870.72;4186003;28;20037;-71
2022/10/05 02:55:53;;;;;;;6.40;3.78;;;;;;;5.19;100.00;98857.47;4185221;28;20470;-71
2022/10/05 02:57:54;;;;;;;5.13;3.03;;;;;;;5.23;100.00;98868.59;4184462;28;20052;-71
2022/10/05 03:00:04;;;;;;;8.38;3.90;;;;;;;5.24;100.00;98861.97;4185510;28;20068;-71
2022/10/05 03:02:17;;;;;;;6.20;3.95;;;;;;;5.27;100.00;98858.53;4185473;28;20048;-71
2022/10/05 03:04:41;;;;;;;5.75;3.63;;;;;;;5.33;100.00;98855.28;4185600;28;20068;-71
2022/10/05 03:07:00;;;;;;;8.65;3.53;;;;;;;5.36;100.00;98853.81;4184794;28;20422;-71
2022/10/05 03:09:06;;;;;;;6.63;3.20;;;;;;;5.34;100.00;98848.66;4185672;28;20431;-71
2022/10/05 03:11:21;;;;;;;7.28;3.40;;;;;;;5.24;100.00;98861.97;4184734;28;20075;-71
2022/10/05 03:13:33;;;;;;;6.03;3.50;;;;;;;5.10;100.00;98858.66;4185014;28;20105;-71
2022/10/05 03:15:42;;;;;;;6.85;3.72;;;;;;;4.95;100.00;98865.53;4185459;28;20127;-71
2022/10/05 03:17:55;;;;;;;5.00;3.42;;;;;;;4.87;100.00;98869.13;4185342;28;20190;-71
2022/10/05 03:20:27;;;;;;;8.40;3.92;;;;;;;4.81;100.00;98871.25;4185326;28;20496;-70
2022/10/05 03:22:39;;;;;;;10.70;3.60;;;;;;;4.75;100.00;98873.38;4185410;28;20044;-71
2022/10/05 03:24:55;;;;;;;8.60;4.22;;;;;;;4.74;100.00;98881.94;4185569;28;20037;-71
2022/10/05 03:27:22;;;;;;;8.13;4.10;;;;;;;4.70;100.00;98890.00;4184942;28;20468;-71
2022/10/05 03:29:37;;;;;;;8.35;4.03;;;;;;;4.72;100.00;98890.50;4180991;28;20484;-71
2022/10/05 03:31:45;;;;;;;6.38;4.38;;;;;;;4.73;100.00;98896.78;4185263;28;20345;-71
2022/10/05 03:33:51;;;;;;;9.93;3.90;;;;;;;4.75;100.00;98900.00;4185433;28;20659;-71
2022/10/05 03:36:04;;;;;;;8.55;4.50;;;;;;;4.71;100.00;98896.28;4184884;28;20365;-70
2022/10/05 03:38:07;;;;;;;6.70;4.25;;;;;;;4.69;100.00;98907.59;4185538;28;20091;-71
2022/10/05 03:40:32;;;;;;;6.95;4.45;;;;;;;4.65;100.00;98898.41;4184695;28;20036;-71
2022/10/05 03:43:04;;;;;;;8.00;4.13;;;;;;;4.63;100.00;98892.44;4185470;28;20044;-71
2022/10/05 03:45:14;;;;;;;6.80;4.00;;;;;;;4.60;100.00;98884.09;4188484;28;20126;-70
2022/10/05 03:47:29;;;;;;;7.40;4.00;;;;;;;4.57;100.00;98892.97;4187591;28;20252;-70
2022/10/05 03:49:39;;;;;;;7.28;4.13;;;;;;;4.54;100.00;98897.16;4187704;28;20466;-70
2022/10/05 03:51:45;;;;;;;6.45;3.85;;;;;;;4.54;100.00;98886.19;4188328;28;20055;-70
2022/10/05 03:53:59;;;;;;;6.20;3.80;;;;;;;4.52;100.00;98885.72;4188573;28;20473;-70
2022/10/05 03:56:08;;;;;;;6.88;3.88;;;;;;;4.57;100.00;98892.97;4187943;28;20037;-70
2022/10/05 03:58:23;;;;;;;5.53;3.50;;;;;;;4.55;100.00;98882.34;4187025;28;20086;-71
2022/10/05 04:00:24;;;;;;;8.23;3.30;;;;;;;4.53;100.00;98881.84;4188222;28;20083;-71
2022/10/05 04:02:55;;;;;;;6.30;3.97;;;;;;;4.50;100.00;98882.50;4188217;28;20045;-71
2022/10/05 04:05:12;;;;;;;5.32;3.53;;;;;;;4.46;100.00;98876.88;4190034;28;20477;-71
2022/10/05 04:07:34;;;;;;;6.82;3.80;;;;;;;4.43;100.00;98876.72;4188975;28;20047;-70
2022/10/05 04:09:39;;;;;;;5.80;3.47;;;;;;;4.40;100.00;98888.34;4188648;28;20052;-70
2022/10/05 04:12:08;;;;;;;5.65;3.85;;;;;;;4.39;100.00;98882.06;4187659;28;20787;-70
2022/10/05 04:14:25;;;;;;;6.10;3.97;;;;;;;4.40;100.00;98883.69;4187791;28;20040;-70
2022/10/05 04:16:42;;;;;;;7.85;4.70;;;;;;;4.35;100.00;98878.38;4187562;28;20082;-71
2022/10/05 04:19:09;;;;;;;8.23;5.22;;;;;;;4.36;100.00;98871.75;4187240;28;20044;-71
2022/10/05 04:21:44;;;;;;;7.30;5.15;;;;;;;4.35;100.00;98869.34;4187616;28;20051;-70
2022/10/05 04:24:08;;;;;;;10.88;7.05;;;;;;;4.35;100.00;98859.19;4188408;28;20131;-70
2022/10/05 04:26:15;;;;;;;10.30;7.10;;;;;;;4.26;100.00;98852.13;4187003;28;20143;-71
2022/10/05 04:28:37;;;;;;;9.63;6.90;;;;;;;4.25;100.00;98848.59;4187906;28;20039;-71
2022/10/05 04:30:42;;;;;;;10.45;6.57;;;;;;;4.27;100.00;98848.25;4187546;28;20105;-70
2022/10/05 04:32:56;;;;;;;13.30;7.95;;;;;;;4.27;100.00;98846.31;4187250;28;20644;-70
2022/10/05 04:35:12;;;;;;;13.18;8.05;;;;;;;4.27;100.00;98834.56;4187778;28;20044;-70
2022/10/05 04:37:23;;;;;;;11.60;7.07;;;;;;;4.25;100.00;98836.84;4186259;28;20072;-70
2022/10/05 04:39:44;;;;;;;10.85;7.13;;;;;;;4.17;100.00;98838.47;4186297;28;20420;-70
2022/10/05 04:41:59;;;;;;;12.90;7.60;;;;;;;4.06;100.00;98829.00;4187124;28;20043;-70
2022/10/05 04:44:15;;;;;;;13.63;7.95;;;;;;;4.07;100.00;98836.91;4187046;28;20375;-70
2022/10/05 04:46:35;;;;;;;11.48;7.70;;;;;;;4.03;100.00;98835.91;4185952;28;20488;-71
2022/10/05 04:49:06;;;;;;;12.15;7.28;;;;;;;4.02;100.00;98836.25;4186829;28;20459;-70
2022/10/05 04:51:22;;;;;;;9.77;6.70;;;;;;;4.03;100.00;98833.19;4187341;28;20051;-70
2022/10/05 04:53:37;;;;;;;12.88;6.80;;;;;;;4.01;100.00;98832.72;4187580;28;20032;-70
2022/10/05 04:55:43;;;;;;;13.23;6.65;;;;;;;3.97;100.00;98839.16;4184837;28;20176;-70
2022/10/05 04:58:20;;;;;;;8.35;5.95;;;;;;;3.90;100.00;98831.47;4188273;28;20094;-70
2022/10/05 05:00:59;;;;;;;10.32;5.93;;;;;;;3.87;100.00;98837.56;4106017;28;20702;-70
2022/10/05 05:03:33;;;;;;;9.52;6.35;;;;;;;3.83;100.00;98829.22;4186329;28;20049;-70
2022/10/05 05:05:45;;;;;;;8.45;5.78;;;;;;;3.79;100.00;98836.44;4185415;28;20420;-70
2022/10/05 05:08:00;;;;;;;10.25;6.10;;;;;;;3.82;100.00;98835.81;4186388;28;20052;-70
2022/10/05 05:10:38;;;;;;;11.52;6.05;;;;;;;3.85;100.00;98843.38;4185412;28;20512;-70
2022/10/05 05:12:56;;;;;;;11.32;6.68;;;;;;;3.78;100.00;98845.78;4186878;28;20082;-70
2022/10/05 05:15:17;;;;;;;9.07;6.05;;;;;;;3.78;100.00;98837.59;4184817;28;20044;-70
2022/10/05 05:17:56;;;;;;;10.90;6.18;;;;;;;3.75;100.00;98845.66;4186895;28;20060;-70
2022/10/05 05:20:29;;;;;;;13.68;8.20;;;;;;;3.78;100.00;98851.28;4177738;28;20507;-70
2022/10/05 05:23:11;;;;;;;15.73;7.78;;;;;;;3.76;100.00;98855.47;4150106;28;20048;-70
2022/10/05 05:25:20;;;;;;;19.65;8.23;;;;;;;3.75;100.00;98845.66;4186287;28;20045;-70
2022/10/05 05:27:47;;;;;;;13.52;7.35;;;;;;;3.77;100.00;98844.19;4185469;28;20416;-70
2022/10/05 05:30:18;;;;;;;9.23;5.90;;;;;;;3.82;100.00;98859.66;4185586;28;21207;-70
2022/10/05 05:32:54;;;;;;;11.40;6.68;;;;;;;3.86;100.00;98852.38;4186066;28;20047;-70
2022/10/05 05:35:32;;;;;;;12.60;7.10;;;;;;;3.86;100.00;98860.59;4186547;28;20362;-70
2022/10/05 05:37:44;;;;;;;11.57;6.45;;;;;;;3.94;100.00;98852.38;4185434;28;20139;-70
2022/10/05 05:40:10;;;;;;;14.10;5.88;;;;;;;3.93;100.00;98858.97;4186076;28;20041;-70
2022/10/05 05:42:33;;;;;;;9.38;5.47;;;;;;;3.93;100.00;98858.97;4186283;28;20495;-70
2022/10/05 05:44:44;;;;;;;;;;;;;;;3.92;100.00;98857.38;4187215;28;20036;-70
2022/10/05 05:46:58;;;;;;;9.10;5.88;;;;;;;3.85;100.00;98859.00;4186482;28;19912;-71
2022/10/05 05:49:07;;;;;;;11.90;5.85;;;;;;;3.82;100.00;98860.47;4186218;28;20389;-70
2022/10/05 05:51:29;;;;;;;18.95;6.53;;;;;;;3.84;100.00;98865.59;4186808;28;20051;-70
2022/10/05 05:53:42;;;;;;;10.45;6.45;;;;;;;3.81;100.00;98869.81;4185012;28;20140;-70
2022/10/05 05:55:48;;;;;;;15.52;6.93;;;;;;;3.82;100.00;98862.38;4186421;28;20110;-70
2022/10/05 05:58:26;;;;;;;12.35;7.75;;;;;;;3.88;100.00;98864.63;4186639;28;20122;-70
2022/10/05 06:00:35;;;;;;;16.25;7.13;;;;;;;3.90;100.00;98861.56;4186023;28;20048;-70
2022/10/05 06:02:43;;;;;;;14.13;9.40;;;;;;;3.93;100.00;98861.72;4185962;28;20381;-70
2022/10/05 06:04:48;;;;;;;13.60;9.13;;;;;;;3.97;100.00;98856.38;4186076;28;20036;-70
2022/10/05 06:06:52;;;;;;;17.05;9.90;;;;;;;3.94;100.00;98848.81;4185737;28;20067;-70
2022/10/05 06:08:56;;;;;;;19.52;11.27;;;;;;;4.01;100.00;98849.16;4185625;28;20041;-70
2022/10/05 06:11:04;;;;;;;15.30;10.35;;;;;;;4.04;100.00;98851.22;4186208;28;20462;-70
2022/10/05 06:13:12;;;;;;;21.60;10.55;;;;;;;4.06;100.00;98848.97;4186450;28;20241;-70
2022/10/05 06:15:24;;;;;;;17.95;10.95;;;;;;;4.11;100.00;98854.25;4186238;28;20052;-70
2022/10/05 06:17:36;;;;;;;18.65;9.95;;;;;;;4.16;100.00;98853.31;4185165;28;20044;-70
2022/10/05 06:19:39;;;;;;;17.25;9.98;;;;;;;4.17;100.00;98854.91;4184894;28;20394;-70
2022/10/05 06:21:46;;;;;;;20.20;11.30;;;;;;;4.23;100.00;98856.34;4186033;28;20119;-70
2022/10/05 06:23:55;;;;;;;16.17;10.40;;;;;;;4.24;100.00;98863.44;4185894;28;20527;-70
2022/10/05 06:26:23;;;;;;;15.13;9.13;;;;;;;4.29;100.00;98863.22;4186529;28;20044;-70
2022/10/05 06:28:26;;;;;;;13.43;7.75;;;;;;;4.30;100.00;98861.28;4185497;28;20048;-71
2022/10/05 06:30:31;;;;;;;;;;;;;;;4.34;100.00;98873.22;4186381;28;20059;-70
2022/10/05 06:32:43;;;;;;;10.98;7.45;;;;;;;4.41;100.00;98874.31;4186197;28;19977;-71
2022/10/05 06:34:55;;;;;;;13.53;8.23;;;;;;;4.45;100.00;98879.94;4186317;28;20043;-71
2022/10/05 06:37:00;;;;;;;12.80;7.90;;;;;;;4.49;100.00;98883.66;4186006;28;20388;-70
2022/10/05 06:39:35;;;;;;;13.50;6.85;;;;;;;4.56;100.00;98877.66;4185548;28;20108;-70
2022/10/05 06:42:07;;;;;;;10.20;6.57;;;;;;;4.63;100.00;98873.25;4185039;28;20268;-70
2022/10/05 06:44:37;;;;;;;10.82;6.55;;;;;;;4.74;100.00;98870.97;4185489;28;20044;-70
2022/10/05 06:46:44;;;;;;;11.15;6.97;;;;;;;4.83;100.00;98871.72;4186302;28;20597;-70
2022/10/05 06:49:09;;;;;;;10.48;7.00;;;;;;;4.90;100.00;98869.28;4185300;28;20461;-70
2022/10/05 06:51:51;;;;;;;11.50;6.97;;;;;;;4.97;100.00;98866.81;4185620;28;20226;-70
2022/10/05 06:54:14;;;;;;;12.55;7.63;;;;;;;5.08;100.00;98865.28;4117611;28;20530;-70
2022/10/05 06:56:24;;;;;;;19.92;10.35;;;;;;;5.22;100.00;98877.97;4185783;28;20052;-71
2022/10/05 06:58:51;;;;;;;16.05;10.32;;;;;;;5.34;100.00;98867.06;4185414;28;20049;-70
2022/10/05 07:01:27;;;;;;;18.95;10.32;;;;;;;5.42;100.00;98868.94;4186529;28;20493;-70
2022/10/05 07:04:03;;;;;;;13.98;9.00;;;;;;;5.53;100.00;98864.63;4185488;28;20081;-70
2022/10/05 07:06:22;;;;;;;13.10;9.38;;;;;;;5.61;100.00;98858.28;4160549;28;20051;-70
2022/10/05 07:08:44;;;;;;;13.20;8.57;;;;;;;5.70;100.00;98858.19;4185473;28;20131;-71
2022/10/05 07:10:57;;;;;;;16.92;9.55;;;;;;;5.77;100.00;98852.16;4186137;28;20519;-70
2022/10/05 07:13:00;;;;;;;18.13;10.48;;;;;;;5.86;100.00;98855.63;4184441;28;20049;-70
2022/10/05 07:15:00;;;;;;;17.05;10.20;;;;;;;6.00;100.00;98847.94;4185626;28;20041;-70
2022/10/05 07:17:19;;;;;;;19.67;8.63;;;;;;;6.13;100.00;98855.09;4184546;28;20041;-71
2022/10/05 07:19:59;;;;;;;14.10;8.48;;;;;;;6.24;100.00;98844.47;4187176;28;20049;-70
2022/10/05 07:22:05;;;;;;;12.80;7.63;;;;;;;6.29;100.00;98835.19;4164801;28;20052;-70
2022/10/05 07:24:30;;;;;;;11.57;7.47;;;;;;;6.35;100.00;98828.31;4188572;28;20300;-70
2022/10/05 07:26:42;;;;;;;10.77;6.05;;;;;;;6.43;100.00;98833.72;4189298;28;20435;-71
2022/10/05 07:29:19;;;;;;;10.48;6.97;;;;;;;6.56;100.00;98839.25;4188000;28;20127;-71
2022/10/05 07:31:49;;;;;;;8.20;5.70;;;;;;;6.64;100.00;98832.84;4187978;28;20028;-71
2022/10/05 07:34:00;;;;;;;13.23;6.28;;;;;;;6.79;100.00;98831.34;4188135;28;20048;-71
2022/10/05 07:38:50;;;;;;;10.93;6.50;;;;;;;6.99;100.00;98825.72;4187205;28;20086;-71
2022/10/05 07:40:57;;;;;;;9.73;6.80;;;;;;;7.13;100.00;98835.56;4188660;28;20311;-71
2022/10/05 07:43:29;;;;;;;12.23;6.47;;;;;;;7.24;100.00;98836.66;4188146;28;20142;-71
2022/10/05 07:45:44;;;;;;;12.07;6.13;;;;;;;7.36;100.00;98833.09;4188418;28;20526;-71
2022/10/05 07:48:28;;;;;;;14.23;6.07;;;;;;;7.45;100.00;98842.81;4188518;28;20389;-71
2022/10/05 07:50:35;;;;;;;14.63;6.80;;;;;;;7.53;100.00;98847.41;4185356;28;20071;-71
2022/10/05 07:52:40;;;;;;;11.27;6.20;;;;;;;7.57;100.00;98847.47;4188527;28;20048;-71
2022/10/05 07:54:55;;;;;;;8.30;5.72;;;;;;;7.66;100.00;98848.16;4187980;28;20086;-71
2022/10/05 07:57:34;;;;;;;14.05;7.90;;;;;;;7.72;100.00;98841.25;4188225;28;20036;-71
2022/10/05 07:59:53;;;;;;;18.98;10.02;;;;;;;7.83;100.00;98836.03;4187358;28;20048;-71
2022/10/05 08:02:04;;;;;;;22.60;8.77;;;;;;;7.92;100.00;98841.38;4188225;28;20040;-71
2022/10/05 08:04:13;;;;;;;15.77;7.70;;;;;;;7.99;99.27;98833.31;4187634;28;20441;-71
2022/10/05 08:06:30;;;;;;;11.07;6.63;;;;;;;8.12;100.00;98838.41;4188336;28;20391;-71
2022/10/05 08:09:01;;;;;;;10.10;6.43;;;;;;;8.26;100.00;98837.97;4187981;28;20391;-71
2022/10/05 08:11:26;;;;;;;10.55;6.32;;;;;;;8.34;100.00;98831.50;4187975;28;20032;-71
2022/10/05 08:13:38;;;;;;;9.45;5.93;;;;;;;8.40;100.00;98837.59;4187861;28;20075;-71
2022/10/05 08:15:46;;;;;;;12.32;6.97;;;;;;;8.44;100.00;98836.53;4187874;28;20047;-71
2022/10/05 08:17:53;;;;;;;13.27;6.55;;;;;;;8.51;97.42;98824.84;4187710;28;20059;-71
2022/10/05 08:20:14;;;;;;;8.63;6.85;;;;;;;8.74;100.00;98830.56;4175617;28;20128;-70
2022/10/05 08:22:24;;;;;;;13.55;7.68;;;;;;;9.01;96.20;98832.38;4187323;28;20075;-70
2022/10/05 08:24:58;;;;;;;12.30;6.38;;;;;;;9.18;99.90;98830.38;4188631;28;20680;-70
2022/10/05 08:27:15;;;;;;;15.57;7.43;;;;;;;9.43;100.00;98833.69;4187991;28;20504;-70
2022/10/05 08:29:34;;;;;;;10.13;6.88;;;;;;;9.68;100.00;98840.56;4186840;28;20455;-71
2022/10/05 08:31:37;;;;;;;13.60;8.32;;;;;;;9.89;100.00;98834.66;4187363;28;20078;-71
2022/10/05 08:34:20;;;;;;;10.27;6.47;;;;;;;10.00;100.00;98830.13;4187397;28;20502;-71
2022/10/05 08:36:32;;;;;;;9.30;5.93;;;;;;;10.18;100.00;98826.91;4159186;28;20201;-71
2022/10/05 08:38:33;;;;;;;11.30;5.43;;;;;;;10.28;100.00;98823.59;4187100;28;20041;-71
2022/10/05 08:40:43;;;;;;;8.45;5.05;;;;;;;10.36;95.39;98823.34;4187827;28;20484;-71
2022/10/05 08:43:04;;;;;;;6.68;4.97;;;;;;;10.41;95.56;98825.78;4187540;28;20105;-71
2022/10/05 08:45:31;;;;;;;9.63;5.25;;;;;;;10.54;98.59;98829.19;4187599;28;20461;-71
2022/10/05 08:47:46;;;;;;;7.70;5.43;;;;;;;10.68;96.45;98825.88;4187227;28;20511;-71
2022/10/05 08:50:11;;;;;;;8.88;6.78;;;;;;;11.09;95.98;98829.69;4187060;28;20044;-71
2022/10/05 08:52:49;;;;;;;7.55;5.45;;;;;;;11.44;93.58;98823.03;4187658;28;20060;-71
2022/10/05 08:54:55;;;;;;;8.50;5.72;;;;;;;11.49;91.41;98831.00;4186940;28;20040;-71
2022/10/05 08:57:23;;;;;;;10.00;5.80;;;;;;;11.59;92.91;98835.13;4186627;28;20488;-71
2022/10/05 08:59:52;;;;;;;9.70;6.53;;;;;;;11.66;93.18;98824.91;4185944;28;20044;-71
2022/10/05 09:02:17;;;;;;;14.30;8.38;;;;;;;11.89;92.13;98835.13;4187096;28;21310;-71
2022/10/05 09:04:45;;;;;;;7.53;5.22;;;;;;;11.99;92.01;98828.88;4187106;28;20083;-71
2022/10/05 09:06:49;;;;;;;6.28;4.30;;;;;;;12.24;91.28;98840.25;4187660;28;20354;-71
2022/10/05 09:09:13;;;;;;;8.75;5.70;;;;;;;12.45;89.48;98834.94;4186462;28;20037;-71
2022/10/05 09:11:25;;;;;;;8.63;4.88;;;;;;;12.50;89.62;98831.03;4187427;28;20441;-71
2022/10/05 09:13:37;;;;;;;5.78;3.88;;;;;;;12.57;89.08;98833.84;4187323;28;20503;-71
2022/10/05 09:15:55;;;;;;;8.60;4.20;;;;;;;12.60;89.52;98833.09;4186707;28;20098;-71
2022/10/05 09:18:01;;;;;;;5.60;4.25;;;;;;;12.71;87.83;98839.53;4187439;28;20357;-71
2022/10/05 09:20:41;;;;;;;6.30;4.03;;;;;;;12.81;88.44;98841.59;4173159;28;20079;-71
2022/10/05 09:23:24;;;;;;;5.32;3.72;;;;;;;13.04;87.48;98846.13;4186694;28;20067;-71
2022/10/05 09:25:41;;;;;;;6.15;3.83;;;;;;;13.18;86.08;98838.72;4182692;28;20040;-71
2022/10/05 09:28:10;;;;;;;4.72;3.75;;;;;;;13.35;85.02;98855.91;4187254;28;20685;-71
2022/10/05 09:30:58;;;;;;;4.80;3.90;;;;;;;13.59;83.80;98846.94;4117779;28;20050;-71
2022/10/05 09:33:14;;;;;;;7.15;4.57;;;;;;;13.61;83.80;98850.09;4138674;28;20417;-71
2022/10/05 09:35:33;;;;;;;4.93;3.80;;;;;;;13.71;83.69;98845.78;4186430;28;20370;-71
2022/10/05 09:37:56;;;;;;;5.63;3.90;;;;;;;13.71;82.77;98856.91;4186976;28;20790;-71
2022/10/05 09:39:56;;;;;;;5.25;3.60;;;;;;;13.79;83.25;98850.19;4185619;28;20075;-71
2022/10/05 09:42:36;;;;;;;5.88;3.78;;;;;;;13.86;82.38;98853.00;4185999;28;20052;-71
2022/10/05 09:45:14;;;;;;;5.32;3.80;;;;;;;13.89;82.13;98854.19;4145517;28;20047;-71
2022/10/05 09:47:33;;;;;;;6.97;3.90;;;;;;;13.99;81.41;98864.59;4186168;28;20052;-71
2022/10/05 09:49:58;;;;;;;4.60;3.80;;;;;;;14.14;81.92;98851.50;4186067;28;20044;-71
2022/10/05 09:52:25;;;;;;;5.03;3.90;;;;;;;14.13;81.52;98856.28;4186554;28;20072;-71
2022/10/05 09:54:47;;;;;;;6.22;3.67;;;;;;;14.23;79.16;98865.84;4185140;28;20059;-71
2022/10/05 09:57:03;;;;;;;5.50;3.67;;;;;;;14.24;78.96;98857.13;4186472;28;20083;-71
2022/10/05 09:59:30;;;;;;;4.45;4.00;;;;;;;14.20;79.29;98852.72;4186118;28;20097;-71
2022/10/05 10:01:39;;;;;;;7.43;3.67;;;;;;;14.24;78.53;98859.13;4186008;28;20040;-71
2022/10/05 10:04:08;;;;;;;4.82;3.53;;;;;;;14.25;79.48;98858.72;4186547;28;20175;-71
2022/10/05 10:06:19;;;;;;;5.97;3.58;;;;;;;14.30;78.58;98863.09;4186241;28;20051;-71
2022/10/05 10:08:44;;;;;;;4.90;3.40;;;;;;;14.34;79.03;98866.69;4186056;28;20283;-71
2022/10/05 10:10:55;;;;;;;4.05;3.40;;;;;;;14.36;78.45;98857.94;4185900;28;20052;-71
2022/10/05 10:13:16;;;;;;;4.65;3.40;;;;;;;14.27;78.58;98859.13;4186175;28;20792;-71
2022/10/05 10:15:56;;;;;;;4.57;3.42;;;;;;;14.33;79.30;98848.41;4186125;28;20525;-71
2022/10/05 10:18:16;;;;;;;3.85;3.30;;;;;;;14.29;79.07;98850.38;4186415;28;20401;-71
2022/10/05 10:20:22;;;;;;;5.57;3.17;;;;;;;14.31;78.20;98847.97;4185839;28;20149;-71
2022/10/05 10:22:56;;;;;;;4.63;3.72;;;;;;;14.40;78.31;98836.47;4186658;28;20056;-71
2022/10/05 10:25:18;;;;;;;4.25;3.08;;;;;;;14.39;78.41;98830.09;4185066;28;20470;-71
2022/10/05 10:27:35;;;;;;;4.75;3.40;;;;;;;14.40;78.53;98834.50;4185741;28;20392;-71
2022/10/05 10:29:41;;;;;;;5.35;3.13;;;;;;;14.56;79.23;98829.38;4185380;28;20052;-71
2022/10/05 10:32:00;;;;;;;5.70;3.60;;;;;;;14.55;78.84;98838.13;4185897;28;20040;-72
2022/10/05 10:34:31;;;;;;;4.20;3.42;;;;;;;14.55;78.08;98835.34;4186039;28;20893;-72
2022/10/05 10:36:57;;;;;;;5.88;3.58;;;;;;;14.64;79.10;98837.72;4186055;28;20124;-72
2022/10/05 10:39:05;;;;;;;5.25;3.10;;;;;;;14.70;79.88;98827.78;4185834;28;20341;-72
2022/10/05 10:41:32;;;;;;;3.65;3.03;;;;;;;14.78;78.67;98832.97;4186112;28;20048;-72
2022/10/05 10:43:51;;;;;;;3.85;3.05;;;;;;;14.87;77.35;98833.38;4186173;28;20135;-71
2022/10/05 10:46:28;;;;;;;3.78;3.13;;;;;;;14.91;77.23;98829.81;4185780;28;20044;-72